Terminal Aerodrome Forecast
Issued by NWS

Current Version | Previous Version | Text Only | Print | Product List | Glossary On
Versions: 1 2 3 4 5 6 7 8 9 10 11 12 13
000
FTUS44 KEPZ 052339
TAFTCS
TAF
KTCS 052339Z 0600/0624 17007KT P6SM FEW250
     FM060200 31008KT P6SM SCT250
     FM061400 VRB04KT P6SM BKN250
     FM061900 18012G21KT P6SM BKN250=

USA.gov is the U.S. government's official web portal to all federal, state and local government web resources and services.